createdAt,value
2023-04-02T09:35:53.322Z,2.55
2023-04-02T09:38:28.883Z,4.03
2023-04-02T09:41:05.260Z,3.50
2023-04-02T09:43:37.445Z,7.53
2023-04-02T09:46:14.005Z,2.83
2023-04-02T09:48:45.649Z,2.92
2023-04-02T09:51:18.300Z,2.25
2023-04-02T09:54:15.982Z,2.25
2023-04-02T09:57:04.334Z,3.45
2023-04-02T09:59:31.963Z,3.20
2023-04-02T10:02:03.276Z,2.85
2023-04-02T10:04:47.979Z,2.08
2023-04-02T10:07:42.173Z,2.40
2023-04-02T10:10:44.692Z,3.92
2023-04-02T10:13:46.446Z,3.67
2023-04-02T10:16:37.745Z,2.85
2023-04-02T10:19:34.782Z,2.53
2023-04-02T10:22:20.943Z,2.92
2023-04-02T10:24:49.922Z,4.10
2023-04-02T10:27:37.973Z,3.47
2023-04-02T10:30:11.499Z,3.45
2023-04-02T10:33:23.193Z,3.22
2023-04-02T10:36:37.545Z,2.33
2023-04-02T10:39:33.855Z,2.10
2023-04-02T10:42:22.745Z,5.63
2023-04-02T10:45:28.469Z,4.47
2023-04-02T10:48:20.781Z,1.65
2023-04-02T10:51:11.917Z,1.40
2023-04-02T10:54:02.940Z,3.38
2023-04-02T10:56:44.228Z,1.77
2023-04-02T10:59:33.292Z,4.78
2023-04-02T11:02:15.152Z,2.03
2023-04-02T11:04:46.458Z,1.83
2023-04-02T11:07:27.546Z,3.47
2023-04-02T11:09:58.239Z,2.88
2023-04-02T11:12:55.935Z,3.30
2023-04-02T11:15:26.183Z,2.53
2023-04-02T11:17:54.663Z,3.28
2023-04-02T11:20:49.090Z,2.38
2023-04-02T11:23:20.900Z,2.97
2023-04-02T11:25:48.698Z,3.00
2023-04-02T11:28:31.840Z,1.75
2023-04-02T11:31:00.236Z,1.30
2023-04-02T11:33:44.074Z,2.08
2023-04-02T11:36:50.740Z,3.70
2023-04-02T11:39:51.433Z,1.13
2023-04-02T11:42:19.034Z,3.90
2023-04-02T11:44:46.655Z,1.70
2023-04-02T11:47:25.738Z,2.17
2023-04-02T11:50:01.252Z,3.63
2023-04-02T11:52:51.075Z,2.47
2023-04-02T11:55:27.346Z,3.63
2023-04-02T11:58:32.822Z,1.58
2023-04-02T12:01:09.211Z,1.40
2023-04-02T12:03:52.984Z,2.60
2023-04-02T12:06:46.694Z,5.65
2023-04-02T12:09:24.982Z,3.95
2023-04-02T12:12:02.632Z,3.37
2023-04-02T12:14:33.158Z,2.92
2023-04-02T12:17:01.491Z,2.83
2023-04-02T12:19:31.967Z,2.10
2023-04-02T12:22:00.544Z,5.30
2023-04-02T12:24:31.270Z,7.13
2023-04-02T12:27:24.370Z,3.85
2023-04-02T12:30:19.059Z,1.42
2023-04-02T12:33:15.917Z,2.50
2023-04-02T12:35:45.588Z,3.42
2023-04-02T12:38:23.662Z,2.95
2023-04-02T12:41:01.995Z,2.88
2023-04-02T12:43:33.808Z,2.05
2023-04-02T12:46:05.917Z,5.35
2023-04-02T12:48:35.970Z,1.55
2023-04-02T12:51:04.831Z,1.92
2023-04-02T12:53:40.439Z,1.80
2023-04-02T12:56:21.642Z,1.30
2023-04-02T12:59:00.614Z,0.90
2023-04-02T13:01:33.926Z,0.70
2023-04-02T13:04:14.885Z,0.88
2023-04-02T13:06:52.133Z,0.98
2023-04-02T13:09:35.814Z,1.55
2023-04-02T13:12:03.939Z,3.03
2023-04-02T13:14:31.563Z,4.47
2023-04-02T13:16:58.747Z,1.38
2023-04-02T13:19:33.987Z,2.38
2023-04-02T13:22:04.157Z,2.17
2023-04-02T13:24:33.778Z,1.73
2023-04-02T13:27:03.535Z,1.08
2023-04-02T13:29:35.112Z,1.17
2023-04-02T13:32:12.254Z,2.15
2023-04-02T13:34:39.338Z,4.70
2023-04-02T13:37:06.467Z,3.35
2023-04-02T13:39:33.587Z,1.75
2023-04-02T13:42:04.424Z,2.58
2023-04-02T13:44:34.743Z,5.28
2023-04-02T13:47:01.932Z,1.63
2023-04-02T13:49:31.087Z,1.75
2023-04-02T13:54:55.226Z,1.73
2023-04-02T13:57:22.485Z,2.47
2023-04-02T13:59:49.819Z,3.90
2023-04-02T14:02:25.202Z,4.18
2023-04-02T14:05:55.525Z,1.70
2023-04-02T14:08:37.760Z,1.95
2023-04-02T14:11:52.175Z,2.03
2023-04-02T14:14:48.107Z,3.42
2023-04-02T14:18:33.028Z,2.08
2023-04-02T14:21:27.647Z,2.42
2023-04-02T14:24:41.479Z,2.22
2023-04-02T14:28:00.693Z,4.25
2023-04-02T14:31:07.006Z,2.35
2023-04-02T14:33:49.309Z,0.95
2023-04-02T14:36:24.991Z,0.90
2023-04-02T14:39:17.735Z,1.67
2023-04-02T14:42:04.454Z,3.25
2023-04-02T14:44:43.894Z,1.80
2023-04-02T14:47:46.556Z,2.45
2023-04-02T14:50:34.944Z,1.70
2023-04-02T14:53:19.941Z,2.90
2023-04-02T14:55:52.375Z,3.35
2023-04-02T14:58:40.943Z,3.70
2023-04-02T15:01:21.848Z,2.70
2023-04-02T15:04:06.099Z,1.17
2023-04-02T15:06:50.649Z,1.23
2023-04-02T15:09:32.290Z,1.27
2023-04-02T15:12:23.024Z,2.05
2023-04-02T15:15:44.800Z,1.98
2023-04-02T15:18:17.117Z,3.05
2023-04-02T15:21:20.514Z,1.75
2023-04-02T15:24:47.799Z,1.23
2023-04-02T15:27:51.360Z,1.45
2023-04-02T15:30:25.612Z,1.00
2023-04-02T15:33:30.020Z,1.30
2023-04-02T15:36:29.469Z,2.08
2023-04-02T15:39:22.039Z,1.85
2023-04-02T15:42:19.066Z,2.95
2023-04-02T15:45:12.731Z,1.20
2023-04-02T15:48:23.785Z,2.05
2023-04-02T15:51:37.009Z,3.53
2023-04-02T15:54:26.896Z,2.15
2023-04-02T15:57:23.154Z,2.22
2023-04-02T16:00:30.774Z,2.00
2023-04-02T16:03:29.903Z,2.35
2023-04-02T16:06:32.413Z,3.08
2023-04-02T16:09:24.363Z,2.17
2023-04-02T16:12:19.043Z,2.60
2023-04-02T16:14:49.581Z,4.00
2023-04-02T16:17:31.197Z,5.25
2023-04-02T16:20:27.373Z,4.15
2023-04-02T16:23:11.566Z,5.38
2023-04-02T16:26:02.595Z,13.27
2023-04-02T16:28:40.306Z,2.42
2023-04-02T16:31:32.081Z,3.92
2023-04-02T16:34:44.085Z,2.60
2023-04-02T16:37:32.250Z,1.30
2023-04-02T16:40:25.588Z,2.08
2023-04-02T16:43:25.416Z,2.20
2023-04-02T16:46:35.871Z,3.30
2023-04-02T16:50:01.601Z,1.80
2023-04-02T16:53:03.413Z,1.30
2023-04-02T16:56:07.289Z,1.65
2023-04-02T16:59:11.883Z,2.95
2023-04-02T17:02:02.894Z,2.60
2023-04-02T17:04:54.581Z,1.80
2023-04-02T17:07:42.570Z,2.22
2023-04-02T17:11:01.896Z,2.83
2023-04-02T17:13:46.377Z,1.55
2023-04-02T17:16:45.496Z,1.38
2023-04-02T17:19:17.441Z,1.15
2023-04-02T17:21:52.254Z,1.23
2023-04-02T17:24:28.453Z,1.88
2023-04-02T17:27:07.257Z,3.17
2023-04-02T17:29:43.720Z,1.40
2023-04-02T17:32:33.724Z,5.18
2023-04-02T17:35:53.825Z,2.05
2023-04-02T17:38:51.299Z,1.77
2023-04-02T17:41:43.720Z,2.20
2023-04-02T17:45:11.376Z,1.70
2023-04-02T17:48:00.552Z,3.55
2023-04-02T17:50:49.141Z,2.00
2023-04-02T17:53:53.036Z,1.88
2023-04-02T17:56:59.690Z,2.75
2023-04-02T18:00:14.253Z,1.77
2023-04-02T18:03:22.266Z,1.83
2023-04-02T18:06:07.127Z,2.72
2023-04-02T18:09:04.402Z,2.55
2023-04-02T18:12:29.754Z,1.77
2023-04-02T18:15:55.806Z,2.63
2023-04-02T18:18:49.990Z,3.85
2023-04-02T18:22:13.946Z,4.72
2023-04-02T18:25:24.656Z,3.20
2023-04-02T18:28:19.312Z,5.60
2023-04-02T18:31:27.151Z,4.47
2023-04-02T18:34:22.064Z,5.82
2023-04-02T18:37:43.495Z,6.35
2023-04-02T18:40:19.957Z,3.17
2023-04-02T18:42:58.643Z,3.97
2023-04-02T18:45:56.300Z,6.25
2023-04-02T18:48:53.679Z,3.42
2023-04-02T18:51:25.127Z,3.80
2023-04-02T18:54:14.479Z,4.68
2023-04-02T18:56:42.761Z,4.57
2023-04-02T18:59:34.277Z,5.60
2023-04-02T19:02:28.377Z,4.70
2023-04-02T19:05:13.018Z,5.28
2023-04-02T19:07:43.577Z,5.45
2023-04-02T19:10:35.572Z,4.55
2023-04-02T19:13:08.120Z,7.18
2023-04-02T19:16:14.449Z,6.30
2023-04-02T19:19:14.201Z,4.97
2023-04-02T19:21:51.439Z,8.65
2023-04-02T19:24:46.890Z,7.97
2023-04-02T19:27:51.442Z,3.60
2023-04-02T19:30:37.951Z,5.60
2023-04-02T19:33:37.920Z,4.75
2023-04-02T19:36:38.726Z,4.75
2023-04-02T19:39:46.921Z,4.20
2023-04-02T19:42:39.003Z,5.32
2023-04-02T19:45:19.952Z,4.30
2023-04-02T19:47:48.336Z,3.88
2023-04-02T19:50:16.163Z,3.90
2023-04-02T19:52:43.867Z,6.47
2023-04-02T19:55:12.277Z,4.03
2023-04-02T19:57:40.256Z,3.80
2023-04-02T20:00:10.782Z,4.43
2023-04-02T20:02:39.827Z,3.67
2023-04-02T20:05:10.827Z,9.77
2023-04-02T20:07:38.842Z,3.40
2023-04-02T20:10:07.997Z,5.43
2023-04-02T20:12:35.942Z,4.57
2023-04-02T20:15:07.370Z,5.57
2023-04-02T20:17:35.048Z,5.55
2023-04-02T20:20:02.897Z,10.88
2023-04-02T20:22:30.499Z,5.18
2023-04-02T20:24:58.116Z,8.60
2023-04-02T20:27:25.841Z,5.72
2023-04-02T20:29:56.021Z,5.05
2023-04-02T20:32:24.442Z,5.03
2023-04-02T20:34:53.194Z,9.68
2023-04-02T20:37:21.485Z,8.40
2023-04-02T20:39:49.147Z,8.00
2023-04-02T20:42:16.836Z,9.15
2023-04-02T20:44:44.469Z,5.60
2023-04-02T20:47:12.134Z,6.85
2023-04-02T20:49:39.703Z,6.00
2023-04-02T20:52:07.406Z,5.32
2023-04-02T20:54:35.036Z,6.45
2023-04-02T20:57:07.761Z,5.53
2023-04-02T20:59:35.299Z,6.15
2023-04-02T21:02:02.482Z,10.00
2023-04-02T21:04:29.729Z,8.15
2023-04-02T21:06:57.473Z,7.20
2023-04-02T21:09:25.123Z,4.18
2023-04-02T21:11:52.321Z,5.82
2023-04-02T21:14:19.590Z,6.32
2023-04-02T21:16:46.758Z,5.25
2023-04-02T21:19:13.929Z,4.70
2023-04-02T21:21:41.357Z,6.03
2023-04-02T21:24:18.046Z,6.70
2023-04-02T21:26:52.459Z,7.82
2023-04-02T21:29:20.434Z,5.60
2023-04-02T21:31:49.319Z,6.13
2023-04-02T21:34:17.397Z,6.82
2023-04-02T21:36:48.798Z,5.53
2023-04-02T21:39:24.135Z,5.13
2023-04-02T21:41:54.774Z,6.55
2023-04-02T21:44:24.392Z,4.68
2023-04-02T21:46:54.090Z,6.55
2023-04-02T21:49:23.543Z,5.70
2023-04-02T21:54:21.707Z,6.93
2023-04-02T21:56:49.869Z,5.00
2023-04-02T21:59:18.661Z,7.27
2023-04-02T22:01:52.073Z,5.38
2023-04-02T22:04:25.961Z,6.95
2023-04-02T22:06:54.193Z,5.20
2023-04-02T22:09:26.583Z,7.75
2023-04-02T22:12:01.463Z,5.45
2023-04-02T22:14:30.242Z,5.30
2023-04-02T22:17:00.788Z,4.22
2023-04-02T22:19:28.638Z,5.95
2023-04-02T22:21:56.730Z,6.53
2023-04-02T22:24:24.984Z,5.90
2023-04-02T22:26:52.722Z,7.47
2023-04-02T22:29:19.853Z,6.95
2023-04-02T22:31:47.658Z,2.88
2023-04-02T22:34:15.630Z,5.25
2023-04-02T22:36:43.389Z,4.50
2023-04-02T22:39:12.650Z,3.65
2023-04-02T22:41:40.365Z,3.42
2023-04-02T22:44:07.857Z,5.90
2023-04-02T22:46:35.246Z,5.85
2023-04-02T22:49:03.125Z,5.55
2023-04-02T22:51:30.630Z,4.93
2023-04-02T22:53:58.084Z,5.28
2023-04-02T22:56:31.895Z,4.40
2023-04-02T22:58:59.838Z,4.07
2023-04-02T23:01:35.384Z,3.15
2023-04-02T23:04:04.817Z,3.70
2023-04-02T23:06:32.978Z,4.47
2023-04-02T23:09:00.489Z,5.07
2023-04-02T23:11:28.432Z,3.05
2023-04-02T23:13:58.231Z,5.65
2023-04-02T23:16:28.471Z,4.47
2023-04-02T23:18:57.710Z,3.60
2023-04-02T23:21:26.236Z,5.43
2023-04-02T23:23:54.520Z,4.68
2023-04-02T23:26:32.261Z,4.57
2023-04-02T23:29:02.500Z,6.18
2023-04-02T23:31:29.965Z,4.25
2023-04-02T23:33:58.007Z,4.72
2023-04-02T23:36:31.889Z,4.45
2023-04-02T23:39:09.232Z,5.05
2023-04-02T23:41:40.882Z,7.90
2023-04-02T23:44:09.590Z,5.32
2023-04-02T23:46:37.271Z,6.50
2023-04-02T23:49:04.541Z,4.28
2023-04-02T23:51:32.443Z,3.88
2023-04-02T23:54:00.238Z,5.45
2023-04-02T23:56:28.101Z,4.22
2023-04-02T23:58:55.388Z,5.70
